createdAt,value
2019-03-20T00:00:24.850Z,7.96
2019-03-20T00:02:57.626Z,7.98
2019-03-20T00:05:30.777Z,8.02
2019-03-20T00:08:03.469Z,8.06
2019-03-20T00:10:36.569Z,8.07
2019-03-20T00:13:10.767Z,8.12
2019-03-20T00:15:43.752Z,8.17
2019-03-20T00:18:16.448Z,8.18
2019-03-20T00:20:50.115Z,8.20
2019-03-20T00:23:22.951Z,8.22
2019-03-20T00:25:56.475Z,8.25
2019-03-20T00:28:29.656Z,8.26
2019-03-20T00:31:03.119Z,8.27
2019-03-20T00:33:35.727Z,8.26
2019-03-20T00:36:08.811Z,8.27
2019-03-20T00:38:41.549Z,8.28
2019-03-20T00:41:13.895Z,8.31
2019-03-20T00:43:46.437Z,8.32
2019-03-20T00:46:19.560Z,8.35
2019-03-20T00:48:52.033Z,8.37
2019-03-20T00:51:24.657Z,8.37
2019-03-20T00:53:57.280Z,8.40
2019-03-20T00:56:30.222Z,8.42
2019-03-20T00:59:02.920Z,8.44
2019-03-20T01:01:35.886Z,8.45
2019-03-20T01:04:08.387Z,8.48
2019-03-20T01:06:41.152Z,8.50
2019-03-20T01:09:14.163Z,8.50
2019-03-20T01:11:46.827Z,8.44
2019-03-20T01:14:19.510Z,8.41
2019-03-20T01:16:53.193Z,8.37
2019-03-20T01:19:25.761Z,8.36
2019-03-20T01:21:58.865Z,8.32
2019-03-20T01:24:31.163Z,8.32
2019-03-20T01:27:03.850Z,8.30
2019-03-20T01:29:36.447Z,8.30
2019-03-20T01:32:09.342Z,8.29
2019-03-20T01:34:42.214Z,8.28
2019-03-20T01:37:14.794Z,8.30
2019-03-20T01:39:47.384Z,8.34
2019-03-20T01:42:20.040Z,8.37
2019-03-20T01:44:52.644Z,8.40
2019-03-20T01:47:25.560Z,8.42
2019-03-20T01:49:58.221Z,8.43
2019-03-20T01:52:30.750Z,8.41
2019-03-20T01:55:03.928Z,8.39
2019-03-20T01:57:37.807Z,8.41
2019-03-20T02:00:10.764Z,8.43
2019-03-20T02:02:43.430Z,8.41
2019-03-20T02:05:16.118Z,8.42
2019-03-20T02:07:48.804Z,8.41
2019-03-20T02:10:22.329Z,8.40
2019-03-20T02:12:55.058Z,8.42
2019-03-20T02:15:38.084Z,8.40
2019-03-20T02:18:02.005Z,8.41
2019-03-20T02:20:34.650Z,8.43
2019-03-20T02:23:07.341Z,8.45
2019-03-20T02:25:39.995Z,8.46
2019-03-20T02:28:14.213Z,8.47
2019-03-20T02:30:46.792Z,8.48
2019-03-20T02:33:19.645Z,8.47
2019-03-20T02:35:52.487Z,8.46
2019-03-20T02:38:25.338Z,8.45
2019-03-20T02:40:57.721Z,8.45
2019-03-20T02:43:30.704Z,8.46
2019-03-20T02:46:03.405Z,8.46
2019-03-20T02:48:36.275Z,8.46
2019-03-20T02:51:08.829Z,8.48
2019-03-20T02:53:41.190Z,8.49
2019-03-20T02:56:13.805Z,8.45
2019-03-20T02:58:46.445Z,8.44
2019-03-20T03:01:22.898Z,8.45
2019-03-20T03:03:57.485Z,8.41
2019-03-20T03:06:30.115Z,8.42
2019-03-20T03:09:03.332Z,8.40
2019-03-20T03:11:35.908Z,8.40
2019-03-20T03:14:08.586Z,8.41
2019-03-20T03:16:41.508Z,8.41
2019-03-20T03:19:13.990Z,8.42
2019-03-20T03:21:46.784Z,8.41
2019-03-20T03:24:19.513Z,8.40
2019-03-20T03:26:52.048Z,8.43
2019-03-20T03:29:24.621Z,8.39
2019-03-20T03:31:57.382Z,8.41
2019-03-20T03:34:29.871Z,8.41
2019-03-20T03:37:02.609Z,8.38
2019-03-20T03:39:35.163Z,8.37
2019-03-20T03:42:07.847Z,8.37
2019-03-20T03:44:40.794Z,8.39
2019-03-20T03:47:13.477Z,8.37
2019-03-20T03:49:46.227Z,8.37
2019-03-20T03:52:19.267Z,8.35
2019-03-20T03:54:52.066Z,8.35
2019-03-20T03:57:25.134Z,8.36
2019-03-20T03:59:57.521Z,8.36
2019-03-20T04:02:30.166Z,8.34
2019-03-20T04:05:02.957Z,8.34
2019-03-20T04:07:35.829Z,8.35
2019-03-20T04:10:08.309Z,8.39
2019-03-20T04:12:40.756Z,8.42
2019-03-20T04:15:14.432Z,8.42
2019-03-20T04:17:48.012Z,8.43
2019-03-20T04:20:20.527Z,8.43
2019-03-20T04:22:53.013Z,8.48
2019-03-20T04:25:25.662Z,8.47
2019-03-20T04:27:59.436Z,8.50
2019-03-20T04:30:31.965Z,8.52
2019-03-20T04:33:04.435Z,8.55
2019-03-20T04:35:38.070Z,8.52
2019-03-20T04:38:10.978Z,8.49
2019-03-20T04:40:43.973Z,8.48
2019-03-20T04:43:17.459Z,8.48
2019-03-20T04:45:50.200Z,8.48
2019-03-20T04:48:22.658Z,8.48
2019-03-20T04:50:55.045Z,8.47
2019-03-20T04:53:27.375Z,8.47
2019-03-20T04:55:59.769Z,8.46
2019-03-20T04:58:32.453Z,8.43
2019-03-20T05:01:05.123Z,8.39
2019-03-20T05:03:37.630Z,8.41
2019-03-20T05:06:10.360Z,8.39
2019-03-20T05:08:43.223Z,8.39
2019-03-20T05:11:15.924Z,8.42
2019-03-20T05:13:48.659Z,8.46
2019-03-20T05:16:21.506Z,8.48
2019-03-20T05:18:54.012Z,8.52
2019-03-20T05:21:26.896Z,8.56
2019-03-20T05:23:59.480Z,8.59
2019-03-20T05:26:33.217Z,8.62
2019-03-20T05:29:06.235Z,8.63
2019-03-20T05:31:40.247Z,8.62
2019-03-20T05:34:12.680Z,8.61
2019-03-20T05:36:45.598Z,8.61
2019-03-20T05:39:18.059Z,8.61
2019-03-20T05:41:51.066Z,8.62
2019-03-20T05:44:23.665Z,8.66
2019-03-20T05:46:56.372Z,8.64
2019-03-20T05:49:29.087Z,8.65
2019-03-20T05:52:01.423Z,8.67
2019-03-20T05:54:33.845Z,8.66
2019-03-20T05:57:06.215Z,8.68
2019-03-20T05:59:38.823Z,8.73
2019-03-20T06:02:11.397Z,8.78
2019-03-20T06:04:43.789Z,8.84
2019-03-20T06:07:21.678Z,8.88
2019-03-20T06:09:50.867Z,8.90
2019-03-20T06:12:23.379Z,8.93
2019-03-20T06:14:55.788Z,8.95
2019-03-20T06:17:30.778Z,8.98
2019-03-20T06:20:03.124Z,9.01
2019-03-20T06:22:35.608Z,9.04
2019-03-20T06:25:07.974Z,9.03
2019-03-20T06:27:40.383Z,9.00
2019-03-20T06:30:13.473Z,9.08
2019-03-20T06:32:46.269Z,9.12
2019-03-20T06:35:19.068Z,9.12
2019-03-20T06:37:51.912Z,9.18
2019-03-20T06:40:24.401Z,9.18
2019-03-20T06:42:56.655Z,9.24
2019-03-20T06:45:29.281Z,9.27
2019-03-20T06:48:01.420Z,9.30
2019-03-20T06:50:33.791Z,9.30
2019-03-20T06:53:06.303Z,9.34
2019-03-20T06:55:38.770Z,9.36
2019-03-20T06:58:11.647Z,9.39
2019-03-20T07:00:43.929Z,9.44
2019-03-20T07:03:16.180Z,9.46
2019-03-20T07:05:48.679Z,9.48
2019-03-20T07:08:21.091Z,9.44
2019-03-20T07:10:54.977Z,9.47
2019-03-20T07:13:27.552Z,9.49
2019-03-20T07:16:00.034Z,9.53
2019-03-20T07:18:32.271Z,9.56
2019-03-20T07:21:05.691Z,9.58
2019-03-20T07:23:38.481Z,9.60
2019-03-20T07:26:11.801Z,9.62
2019-03-20T07:28:44.242Z,9.64
2019-03-20T07:31:17.612Z,9.67
2019-03-20T07:33:50.423Z,9.73
2019-03-20T07:36:22.792Z,9.72
2019-03-20T07:38:55.102Z,9.72
2019-03-20T07:41:27.361Z,9.72
2019-03-20T07:43:59.978Z,9.76
2019-03-20T07:46:32.489Z,9.78
2019-03-20T07:49:04.874Z,9.81
2019-03-20T07:51:38.256Z,9.82
2019-03-20T07:54:11.105Z,9.89
2019-03-20T07:56:45.838Z,9.90
2019-03-20T07:59:18.272Z,9.99
2019-03-20T08:01:50.845Z,10.09
2019-03-20T08:04:23.122Z,10.22
2019-03-20T08:06:55.697Z,10.37
2019-03-20T08:09:28.573Z,10.48
2019-03-20T08:12:02.920Z,10.59
2019-03-20T08:14:35.359Z,10.62
2019-03-20T08:17:07.727Z,10.78
2019-03-20T08:19:40.188Z,10.87
2019-03-20T08:22:14.828Z,10.82
2019-03-20T08:24:47.095Z,10.79
2019-03-20T08:27:19.836Z,10.84
2019-03-20T08:29:53.198Z,10.89
2019-03-20T08:32:25.505Z,10.95
2019-03-20T08:34:58.126Z,10.95
2019-03-20T08:37:31.960Z,10.95
2019-03-20T08:40:05.691Z,10.83
2019-03-20T08:42:38.990Z,10.78
2019-03-20T08:45:11.393Z,10.75
2019-03-20T08:47:44.277Z,10.76
2019-03-20T08:50:16.691Z,10.71
2019-03-20T08:52:49.013Z,10.68
2019-03-20T08:55:21.499Z,10.69
2019-03-20T08:57:54.018Z,10.62
2019-03-20T09:00:26.443Z,10.72
2019-03-20T09:02:59.230Z,10.79
2019-03-20T09:05:31.574Z,10.91
2019-03-20T09:08:04.794Z,10.93
2019-03-20T09:10:37.173Z,11.02
2019-03-20T09:13:09.543Z,11.15
2019-03-20T09:15:41.854Z,11.25
2019-03-20T09:18:14.228Z,11.38
2019-03-20T09:20:46.486Z,11.42
2019-03-20T09:23:18.790Z,11.36
2019-03-20T09:25:51.145Z,11.45
2019-03-20T09:28:23.431Z,11.49
2019-03-20T09:30:56.240Z,11.39
2019-03-20T09:33:29.645Z,11.34
2019-03-20T09:36:01.931Z,11.27
2019-03-20T09:38:43.063Z,11.26
2019-03-20T09:41:09.660Z,11.31
2019-03-20T09:43:41.932Z,11.31
2019-03-20T09:46:14.161Z,11.25
2019-03-20T09:48:46.405Z,11.31
2019-03-20T09:51:18.704Z,11.39
2019-03-20T09:53:50.815Z,11.39
2019-03-20T09:56:23.114Z,11.37
2019-03-20T09:58:55.437Z,11.32
2019-03-20T10:01:27.783Z,11.35
2019-03-20T10:04:00.065Z,11.39
2019-03-20T10:06:32.362Z,11.37
2019-03-20T10:09:04.653Z,11.44
2019-03-20T10:11:37.040Z,11.48
2019-03-20T10:14:09.549Z,11.54
2019-03-20T10:16:42.195Z,11.57
2019-03-20T10:19:14.539Z,11.47
2019-03-20T10:21:46.765Z,11.43
2019-03-20T10:24:19.273Z,11.35
2019-03-20T10:26:51.400Z,11.30
2019-03-20T10:29:25.264Z,11.28
2019-03-20T10:31:57.495Z,11.29
2019-03-20T10:34:39.204Z,11.23
2019-03-20T10:37:03.906Z,11.22
2019-03-20T10:39:36.191Z,11.21
2019-03-20T10:42:10.475Z,11.20
2019-03-20T10:44:42.733Z,11.28
2019-03-20T10:47:14.909Z,11.38
2019-03-20T10:49:47.571Z,11.51
2019-03-20T10:52:19.887Z,11.65
2019-03-20T10:54:52.406Z,11.77
2019-03-20T10:57:24.734Z,11.96
2019-03-20T10:59:59.367Z,12.05
2019-03-20T11:02:31.728Z,12.17
2019-03-20T11:05:04.085Z,12.23
2019-03-20T11:07:37.622Z,12.28
2019-03-20T11:10:10.033Z,12.49
2019-03-20T11:12:42.261Z,12.70
2019-03-20T11:15:14.498Z,12.80
2019-03-20T11:17:46.938Z,12.97
2019-03-20T11:20:19.242Z,13.33
2019-03-20T11:22:51.623Z,13.58
2019-03-20T11:25:23.854Z,13.72
2019-03-20T11:27:56.183Z,13.92
2019-03-20T11:30:28.569Z,14.08
2019-03-20T11:33:00.819Z,13.99
2019-03-20T11:35:33.172Z,13.88
2019-03-20T11:38:05.425Z,13.72
2019-03-20T11:40:37.715Z,13.48
2019-03-20T11:43:10.138Z,13.30
2019-03-20T11:45:42.375Z,13.26
2019-03-20T11:48:14.712Z,13.27
2019-03-20T11:50:47.068Z,13.17
2019-03-20T11:53:19.347Z,12.95
2019-03-20T11:55:51.630Z,12.77
2019-03-20T11:58:23.889Z,12.65
2019-03-20T12:00:56.303Z,12.46
2019-03-20T12:03:28.552Z,12.41
2019-03-20T12:06:02.812Z,12.27
2019-03-20T12:08:35.246Z,12.19
2019-03-20T12:11:07.469Z,12.24
2019-03-20T12:13:40.023Z,12.34
2019-03-20T12:16:12.376Z,12.49
2019-03-20T12:18:44.524Z,12.53
2019-03-20T12:21:16.972Z,12.53
2019-03-20T12:23:49.344Z,12.56
2019-03-20T12:26:21.888Z,12.70
2019-03-20T12:28:54.345Z,12.89
2019-03-20T12:31:26.856Z,13.12
2019-03-20T12:33:59.102Z,13.29
2019-03-20T12:36:31.393Z,13.53
2019-03-20T12:39:03.766Z,13.75
2019-03-20T12:41:37.344Z,13.72
2019-03-20T12:44:09.602Z,13.75
2019-03-20T12:46:42.084Z,13.87
2019-03-20T12:49:14.604Z,13.87
2019-03-20T12:51:47.195Z,13.78
2019-03-20T12:54:19.628Z,13.68
2019-03-20T12:56:51.880Z,13.61
2019-03-20T12:59:24.234Z,13.62
2019-03-20T13:01:56.718Z,13.76
2019-03-20T13:04:29.097Z,14.03
2019-03-20T13:07:02.092Z,14.19
2019-03-20T13:09:34.434Z,14.20
2019-03-20T13:12:06.791Z,14.10
2019-03-20T13:14:39.102Z,13.99
2019-03-20T13:17:11.563Z,13.98
2019-03-20T13:19:43.923Z,13.89
2019-03-20T13:22:16.342Z,13.79
2019-03-20T13:24:49.067Z,13.78
2019-03-20T13:27:21.426Z,13.77
2019-03-20T13:29:53.749Z,13.82
2019-03-20T13:32:26.278Z,13.86
2019-03-20T13:34:58.570Z,14.02
2019-03-20T13:37:30.827Z,14.05
2019-03-20T13:40:02.919Z,14.00
2019-03-20T13:42:35.351Z,14.04
2019-03-20T13:45:07.665Z,14.12
2019-03-20T13:47:40.006Z,14.09
2019-03-20T13:50:12.565Z,14.18
2019-03-20T13:52:45.235Z,14.15
2019-03-20T13:55:17.872Z,14.10
2019-03-20T13:57:50.660Z,14.08
2019-03-20T14:00:23.030Z,13.87
2019-03-20T14:02:55.668Z,13.69
2019-03-20T14:05:27.953Z,13.61
2019-03-20T14:08:00.189Z,13.73
2019-03-20T14:10:32.553Z,13.97
2019-03-20T14:13:04.870Z,14.16
2019-03-20T14:15:37.205Z,14.30
2019-03-20T14:18:09.475Z,14.45
2019-03-20T14:20:41.979Z,14.52
2019-03-20T14:23:14.250Z,14.49
2019-03-20T14:25:46.357Z,14.47
2019-03-20T14:28:18.673Z,14.45
2019-03-20T14:30:50.943Z,14.39
2019-03-20T14:33:23.300Z,14.25
2019-03-20T14:35:55.625Z,14.09
2019-03-20T14:38:28.204Z,13.79
2019-03-20T14:41:00.683Z,13.58
2019-03-20T14:43:32.906Z,13.55
2019-03-20T14:46:07.397Z,13.56
2019-03-20T14:48:39.832Z,13.67
2019-03-20T14:51:12.010Z,13.74
2019-03-20T14:53:44.370Z,13.79
2019-03-20T14:56:18.298Z,13.76
2019-03-20T14:58:50.712Z,13.67
2019-03-20T15:01:23.125Z,13.61
2019-03-20T15:03:55.685Z,13.65
2019-03-20T15:06:27.969Z,13.61
2019-03-20T15:09:00.232Z,13.62
2019-03-20T15:11:32.285Z,13.59
2019-03-20T15:14:04.510Z,13.57
2019-03-20T15:16:36.900Z,13.63
2019-03-20T15:19:09.223Z,13.68
2019-03-20T15:21:43.783Z,13.67
2019-03-20T15:24:16.083Z,13.68
2019-03-20T15:26:48.341Z,13.58
2019-03-20T15:29:20.867Z,13.57
2019-03-20T15:31:53.761Z,13.57
2019-03-20T15:34:26.183Z,13.55
2019-03-20T15:36:58.510Z,13.46
2019-03-20T15:39:30.946Z,13.45
2019-03-20T15:42:03.401Z,13.37
2019-03-20T15:44:35.984Z,13.28
2019-03-20T15:47:08.355Z,13.22
2019-03-20T15:49:40.799Z,13.17
2019-03-20T15:52:13.288Z,13.18
2019-03-20T15:54:45.915Z,13.18
2019-03-20T15:57:18.362Z,13.12
2019-03-20T15:59:52.693Z,13.02
2019-03-20T16:02:25.235Z,13.00
2019-03-20T16:04:57.631Z,12.94
2019-03-20T16:07:29.928Z,12.86
2019-03-20T16:10:02.349Z,12.81
2019-03-20T16:12:34.802Z,12.82
2019-03-20T16:15:07.280Z,12.80
2019-03-20T16:17:39.698Z,12.79
2019-03-20T16:20:11.911Z,12.75
2019-03-20T16:22:44.274Z,12.68
2019-03-20T16:25:16.554Z,12.69
2019-03-20T16:27:49.053Z,12.69
2019-03-20T16:30:21.390Z,12.67
2019-03-20T16:32:56.353Z,12.67
2019-03-20T16:35:28.414Z,12.65
2019-03-20T16:38:01.047Z,12.65
2019-03-20T16:40:33.883Z,12.61
2019-03-20T16:43:06.529Z,12.60
2019-03-20T16:45:39.045Z,12.57
2019-03-20T16:48:11.481Z,12.58
2019-03-20T16:50:44.258Z,12.61
2019-03-20T16:53:17.691Z,12.55
2019-03-20T16:55:50.129Z,12.55
2019-03-20T16:58:22.611Z,12.58
2019-03-20T17:00:55.131Z,12.56
2019-03-20T17:03:27.488Z,12.57
2019-03-20T17:05:59.993Z,12.55
2019-03-20T17:08:32.871Z,12.51
2019-03-20T17:11:05.362Z,12.49
2019-03-20T17:13:38.010Z,12.43
2019-03-20T17:16:10.471Z,12.39
2019-03-20T17:18:43.851Z,12.38
2019-03-20T17:21:17.748Z,12.37
2019-03-20T17:23:50.029Z,12.33
2019-03-20T17:26:22.295Z,12.33
2019-03-20T17:28:54.529Z,12.29
2019-03-20T17:31:28.368Z,12.28
2019-03-20T17:34:00.930Z,12.29
2019-03-20T17:36:33.750Z,12.27
2019-03-20T17:39:08.340Z,12.29
2019-03-20T17:41:40.790Z,12.30
2019-03-20T17:44:13.046Z,12.27
2019-03-20T17:46:45.285Z,12.26
2019-03-20T17:49:17.530Z,12.21
2019-03-20T17:51:49.814Z,12.19
2019-03-20T17:54:22.079Z,12.18
2019-03-20T17:56:54.354Z,12.15
2019-03-20T17:59:27.016Z,12.14
2019-03-20T18:01:59.304Z,12.12
2019-03-20T18:04:32.501Z,12.12
2019-03-20T18:07:04.833Z,12.12
2019-03-20T18:09:37.343Z,12.11
2019-03-20T18:12:09.665Z,12.08
2019-03-20T18:14:42.187Z,12.09
2019-03-20T18:17:14.852Z,12.02
2019-03-20T18:19:47.019Z,11.98
2019-03-20T18:22:20.998Z,11.97
2019-03-20T18:24:53.658Z,11.91
2019-03-20T18:27:29.041Z,11.84
2019-03-20T18:30:02.854Z,11.80
2019-03-20T18:32:36.121Z,11.71
2019-03-20T18:35:09.862Z,11.66
2019-03-20T18:37:42.224Z,11.64
2019-03-20T18:40:14.585Z,11.54
2019-03-20T18:42:47.298Z,11.53
2019-03-20T18:45:19.672Z,11.58
2019-03-20T18:47:52.333Z,11.59
2019-03-20T18:50:24.731Z,11.49
2019-03-20T18:52:57.080Z,11.29
2019-03-20T18:55:29.887Z,11.11
2019-03-20T18:58:02.296Z,11.03
2019-03-20T19:00:36.296Z,11.09
2019-03-20T19:03:09.201Z,11.14
2019-03-20T19:05:41.566Z,11.16
2019-03-20T19:08:13.928Z,11.19
2019-03-20T19:10:46.621Z,11.20
2019-03-20T19:13:19.063Z,11.15
2019-03-20T19:15:51.303Z,11.15
2019-03-20T19:18:23.710Z,11.18
2019-03-20T19:20:56.185Z,11.18
2019-03-20T19:23:28.735Z,11.20
2019-03-20T19:26:01.150Z,11.17
2019-03-20T19:28:33.697Z,11.08
2019-03-20T19:31:06.289Z,11.03
2019-03-20T19:33:38.854Z,11.01
2019-03-20T19:36:11.619Z,11.03
2019-03-20T19:38:44.040Z,10.95
2019-03-20T19:41:17.106Z,10.97
2019-03-20T19:43:49.501Z,10.98
2019-03-20T19:46:22.201Z,10.99
2019-03-20T19:48:54.669Z,10.95
2019-03-20T19:51:27.921Z,10.97
2019-03-20T19:54:00.504Z,11.06
2019-03-20T19:56:33.211Z,11.04
2019-03-20T19:59:05.469Z,11.07
2019-03-20T20:01:37.999Z,11.09
2019-03-20T20:04:10.266Z,11.07
2019-03-20T20:06:42.587Z,10.99
2019-03-20T20:09:15.227Z,11.00
2019-03-20T20:11:47.895Z,11.02
2019-03-20T20:14:20.374Z,10.92
2019-03-20T20:16:52.780Z,10.87
2019-03-20T20:19:25.060Z,10.64
2019-03-20T20:21:57.306Z,10.40
2019-03-20T20:24:29.685Z,10.20
2019-03-20T20:27:01.977Z,10.08
2019-03-20T20:29:34.354Z,9.98
2019-03-20T20:32:06.725Z,9.89
2019-03-20T20:34:40.098Z,9.84
2019-03-20T20:37:13.505Z,9.79
2019-03-20T20:39:45.992Z,9.81
2019-03-20T20:42:18.587Z,9.77
2019-03-20T20:44:51.113Z,9.74
2019-03-20T20:47:23.575Z,9.74
2019-03-20T20:49:55.972Z,9.71
2019-03-20T20:52:28.501Z,9.69
2019-03-20T20:55:01.098Z,9.68
2019-03-20T20:57:33.523Z,9.66
2019-03-20T21:00:06.046Z,9.67
2019-03-20T21:02:38.447Z,9.65
2019-03-20T21:05:11.121Z,9.61
2019-03-20T21:07:43.699Z,9.60
2019-03-20T21:10:15.923Z,9.57
2019-03-20T21:12:56.121Z,9.54
2019-03-20T21:15:22.352Z,9.49
2019-03-20T21:17:54.644Z,9.45
2019-03-20T21:20:27.006Z,9.41
2019-03-20T21:22:59.926Z,9.36
2019-03-20T21:25:32.303Z,9.34
2019-03-20T21:28:04.862Z,9.30
2019-03-20T21:30:37.297Z,9.28
2019-03-20T21:33:09.699Z,9.26
2019-03-20T21:35:42.010Z,9.22
2019-03-20T21:38:14.334Z,9.17
2019-03-20T21:40:46.558Z,9.16
2019-03-20T21:43:18.623Z,9.14
2019-03-20T21:45:51.098Z,9.12
2019-03-20T21:48:23.513Z,9.12
2019-03-20T21:50:55.797Z,9.10
2019-03-20T21:53:28.286Z,9.09
2019-03-20T21:56:00.717Z,9.07
2019-03-20T21:58:32.957Z,9.03
2019-03-20T22:01:05.778Z,9.02
2019-03-20T22:03:38.021Z,9.00
2019-03-20T22:06:10.425Z,8.98
2019-03-20T22:08:43.100Z,8.98
2019-03-20T22:11:15.466Z,8.96
2019-03-20T22:13:47.751Z,8.93
2019-03-20T22:16:20.528Z,8.93
2019-03-20T22:18:53.094Z,8.96
2019-03-20T22:21:25.436Z,8.96
2019-03-20T22:23:57.942Z,8.95
2019-03-20T22:26:30.313Z,8.99
2019-03-20T22:29:02.614Z,9.04
2019-03-20T22:31:34.970Z,9.12
2019-03-20T22:34:07.704Z,9.17
2019-03-20T22:36:40.018Z,9.17
2019-03-20T22:39:12.468Z,9.18
2019-03-20T22:41:44.790Z,9.17
2019-03-20T22:44:17.272Z,9.13
2019-03-20T22:46:50.611Z,9.07
2019-03-20T22:49:23.144Z,9.00
2019-03-20T22:51:55.484Z,8.96
2019-03-20T22:54:27.791Z,8.93
2019-03-20T22:57:00.081Z,8.93
2019-03-20T22:59:32.368Z,8.91
2019-03-20T23:02:04.906Z,8.87
2019-03-20T23:04:37.379Z,8.81
2019-03-20T23:07:10.762Z,8.77
2019-03-20T23:09:43.443Z,8.73
2019-03-20T23:12:17.756Z,8.72
2019-03-20T23:14:49.799Z,8.66
2019-03-20T23:17:22.281Z,8.63
2019-03-20T23:19:54.582Z,8.60
2019-03-20T23:22:26.955Z,8.57
2019-03-20T23:24:59.279Z,8.55
2019-03-20T23:27:31.452Z,8.51
2019-03-20T23:30:03.873Z,8.52
2019-03-20T23:32:36.155Z,8.51
2019-03-20T23:35:08.536Z,8.48
2019-03-20T23:37:40.974Z,8.44
2019-03-20T23:40:13.268Z,8.42
2019-03-20T23:42:45.650Z,8.44
2019-03-20T23:45:18.290Z,8.43
2019-03-20T23:47:50.771Z,8.42
2019-03-20T23:50:23.099Z,8.40
2019-03-20T23:52:55.398Z,8.39
2019-03-20T23:55:27.759Z,8.40
2019-03-20T23:58:00.132Z,8.38
